createdAt,value
2022-10-13T00:00:41.093Z,101086.69
2022-10-13T00:03:09.603Z,101087.59
2022-10-13T00:05:41.528Z,101084.53
2022-10-13T00:08:09.945Z,101087.53
2022-10-13T00:10:38.003Z,101081.56
2022-10-13T00:13:06.146Z,101087.00
2022-10-13T00:15:33.706Z,101084.25
2022-10-13T00:18:02.701Z,101078.19
2022-10-13T00:20:30.170Z,101075.47
2022-10-13T00:22:57.663Z,101070.34
2022-10-13T00:25:25.220Z,101073.53
2022-10-13T00:27:52.754Z,101071.78
2022-10-13T00:30:20.258Z,101070.31
2022-10-13T00:32:47.972Z,101068.34
2022-10-13T00:35:17.147Z,101061.09
2022-10-13T00:37:44.848Z,101064.69
2022-10-13T00:40:13.561Z,101051.06
2022-10-13T00:42:42.638Z,101064.06
2022-10-13T00:45:23.133Z,101054.09
2022-10-13T00:47:54.302Z,101060.13
2022-10-13T00:50:25.408Z,101061.13
2022-10-13T00:52:54.447Z,101061.75
2022-10-13T00:55:24.598Z,101059.34
2022-10-13T00:57:54.764Z,101067.47
2022-10-13T01:00:23.188Z,101058.25
2022-10-13T01:02:51.205Z,101065.59
2022-10-13T01:05:19.998Z,101061.41
2022-10-13T01:07:50.165Z,101056.78
2022-10-13T01:10:24.783Z,101057.22
2022-10-13T01:13:01.204Z,101060.25
2022-10-13T01:15:32.216Z,101053.34
2022-10-13T01:18:07.793Z,101036.78
2022-10-13T01:20:57.073Z,101038.53
2022-10-13T01:23:57.370Z,101036.38
2022-10-13T01:26:42.814Z,101031.03
2022-10-13T01:29:29.530Z,101023.66
2022-10-13T01:32:04.122Z,101019.22
2022-10-13T01:34:35.870Z,101025.09
2022-10-13T01:37:06.547Z,101022.50
2022-10-13T01:39:38.295Z,101016.28
2022-10-13T01:42:13.227Z,101014.63
2022-10-13T01:44:42.626Z,101007.69
2022-10-13T01:47:12.704Z,101013.41
2022-10-13T01:49:40.401Z,101011.81
2022-10-13T01:52:10.431Z,101003.81
2022-10-13T01:54:38.180Z,101001.63
2022-10-13T01:57:06.166Z,101006.75
2022-10-13T01:59:38.602Z,101007.78
2022-10-13T02:02:13.372Z,101005.28
2022-10-13T02:04:48.523Z,101002.03
2022-10-13T02:07:21.565Z,100998.53
2022-10-13T02:09:58.889Z,101000.97
2022-10-13T02:12:29.496Z,100994.91
2022-10-13T02:14:57.791Z,100996.56
2022-10-13T02:17:28.049Z,100994.06
2022-10-13T02:19:58.133Z,100989.81
2022-10-13T02:22:30.940Z,100985.06
2022-10-13T02:24:58.655Z,100991.09
2022-10-13T02:27:26.390Z,100998.34
2022-10-13T02:29:55.484Z,100989.75
2022-10-13T02:32:23.732Z,100995.25
2022-10-13T02:34:53.322Z,100996.81
2022-10-13T02:37:21.028Z,100991.22
2022-10-13T02:39:48.747Z,100996.31
2022-10-13T02:42:16.305Z,100995.09
2022-10-13T02:44:44.023Z,100991.91
2022-10-13T02:47:11.786Z,100980.63
2022-10-13T02:49:39.271Z,100979.28
2022-10-13T02:52:08.200Z,100981.81
2022-10-13T02:54:35.890Z,100977.84
2022-10-13T02:57:03.567Z,100994.75
2022-10-13T02:59:31.292Z,100993.13
2022-10-13T03:01:58.958Z,100994.38
2022-10-13T03:04:26.674Z,100996.66
2022-10-13T03:06:54.188Z,100996.88
2022-10-13T03:09:23.074Z,100996.88
2022-10-13T03:11:51.036Z,100991.31
2022-10-13T03:14:18.970Z,100993.38
2022-10-13T03:16:46.760Z,100993.78
2022-10-13T03:19:14.452Z,100985.19
2022-10-13T03:21:42.211Z,100983.16
2022-10-13T03:24:10.107Z,100977.19
2022-10-13T03:26:39.214Z,100976.13
2022-10-13T03:29:06.988Z,100973.69
2022-10-13T03:31:34.577Z,100973.75
2022-10-13T03:34:02.213Z,100973.31
2022-10-13T03:36:29.924Z,100966.97
2022-10-13T03:38:57.612Z,100964.28
2022-10-13T03:41:25.136Z,100966.31
2022-10-13T03:43:54.180Z,100969.63
2022-10-13T03:46:22.010Z,100962.47
2022-10-13T03:48:49.528Z,100956.50
2022-10-13T03:51:18.804Z,100962.63
2022-10-13T03:53:46.645Z,100960.19
2022-10-13T03:56:16.142Z,100947.47
2022-10-13T03:58:44.164Z,100954.81
2022-10-13T04:01:14.242Z,100943.75
2022-10-13T04:03:42.084Z,100939.63
2022-10-13T04:06:11.045Z,100945.03
2022-10-13T04:08:38.893Z,100932.66
2022-10-13T04:11:08.353Z,100935.72
2022-10-13T04:13:36.726Z,100935.09
2022-10-13T04:16:05.418Z,100931.75
2022-10-13T04:18:34.431Z,100937.53
2022-10-13T04:21:02.225Z,100931.53
2022-10-13T04:23:29.909Z,100932.19
2022-10-13T04:25:57.867Z,100927.06
2022-10-13T04:28:25.606Z,100923.50
2022-10-13T04:30:53.559Z,100925.63
2022-10-13T04:33:21.283Z,100927.69
2022-10-13T04:38:54.606Z,100930.53
2022-10-13T04:41:23.132Z,100924.41
2022-10-13T04:43:51.419Z,100914.53
2022-10-13T04:46:21.257Z,100911.44
2022-10-13T04:48:49.017Z,100911.25
2022-10-13T04:51:19.546Z,100912.88
2022-10-13T04:59:28.299Z,100911.28
2022-10-13T05:01:55.975Z,100913.38
2022-10-13T05:04:23.495Z,100911.72
2022-10-13T05:07:16.469Z,100904.13
2022-10-13T05:09:40.127Z,100896.09
2022-10-13T05:12:08.170Z,100891.53
2022-10-13T05:14:35.791Z,100903.47
2022-10-13T05:17:03.419Z,100900.81
2022-10-13T05:19:31.114Z,100893.59
2022-10-13T05:22:00.163Z,100889.91
2022-10-13T05:24:36.753Z,100893.59
2022-10-13T05:27:06.143Z,100894.88
2022-10-13T05:29:33.861Z,100894.03
2022-10-13T05:32:01.360Z,100899.19
2022-10-13T05:34:28.968Z,100898.34
2022-10-13T05:36:56.542Z,100890.75
2022-10-13T05:39:25.549Z,100898.31
2022-10-13T05:41:54.106Z,100880.84
2022-10-13T05:44:21.909Z,100877.97
2022-10-13T05:50:00.473Z,100891.97
2022-10-13T05:52:28.867Z,100887.66
2022-10-13T06:01:42.994Z,100880.03
2022-10-13T06:04:14.439Z,100882.91
2022-10-13T06:06:42.421Z,100874.69
2022-10-13T06:38:29.527Z,100869.00
